Roanoke — WDD9656 — position and weather

sailwx.info

Track history (hours):
 
Tides and Currents Weather Stations Pressure Air Temp Water Temp Dewpoint Dewpoint Depression Visibility Wind Speed Wind Dir Waves Ship Positions

Roanoke

Owner: Vane Line Bunkering, Baltimore, MD. More information available from US FCC via Universal Licensing System and Coast Guard Vessel Documentation Center.

Last reported at 2017-Feb-28 14:33 UTC. Time now 2017-Feb-28 14:42 UTC.
Position N 39°12' W 075°22'.

Length 32 m; draft 13 m.

Type: Towing. MMSI: 367314510.

Date/timePositionNaut miles runAvg speedWind from/ knotsBaromVisibWave heightAir tempDewpointWater temp
2017-Feb-28 14:33N 39°12' W 075°22'3 2.8
2017-Feb-28 13:33N 39°15' W 075°21'4 3.5
2017-Feb-28 12:33N 39°17' W 075°23'4 3.6
2017-Feb-28 11:33N 39°20' W 075°26'7 7.4
2017-Feb-28 10:33N 39°26' W 075°32'8 7.7
2017-Feb-28 09:33N 39°34' W 075°34'7 7.1
2017-Feb-28 08:33N 39°32' W 075°44'7 6.6
2017-Feb-28 07:33N 39°32' W 075°52'7 6.9
2017-Feb-28 06:33N 39°27' W 075°59'7 7.0
2017-Feb-28 05:33N 39°23' W 076°06'7 7.0
2017-Feb-28 04:33N 39°18' W 076°13'7 7.2
2017-Feb-28 03:31N 39°14' W 076°20'7 7.3
2017-Feb-28 02:33N 39°12' W 076°29'5 5.2
2017-Feb-28 01:33N 39°15' W 076°34'0 0.0
2017-Feb-28 00:32N 39°15' W 076°34'0 0.0
2017-Feb-27 23:18N 39°15' W 076°34'0 0.0
2017-Feb-27 22:33N 39°15' W 076°34'0 0.0
2017-Feb-27 21:33N 39°15' W 076°34'0 0.0
2017-Feb-27 20:33N 39°15' W 076°34'0 0.0
2017-Feb-27 19:33N 39°15' W 076°34'0 0.0
2017-Feb-27 18:33N 39°15' W 076°34'0 0.0
2017-Feb-27 17:33N 39°15' W 076°34'0 0.0
2017-Feb-27 16:33N 39°15' W 076°34'0 0.0
2017-Feb-27 15:33N 39°15' W 076°34'1 0.9
2017-Feb-27 14:33N 39°15' W 076°33'0 0.0
2017-Feb-27 13:33N 39°15' W 076°33'0 0.0
2017-Feb-27 12:31N 39°15' W 076°33'0 0.0
2017-Feb-27 11:30N 39°15' W 076°33'0 0.0
2017-Feb-27 10:33N 39°15' W 076°33'0 0.0
2017-Feb-27 09:33N 39°15' W 076°33'0 0.0
2017-Feb-27 08:33N 39°15' W 076°33'1 1.1
2017-Feb-27 07:32N 39°15' W 076°34'0 0.0
2017-Feb-27 06:33N 39°15' W 076°34'2 1.7
2017-Feb-27 05:33N 39°14' W 076°32'9 8.0
2017-Feb-27 04:24N 39°13' W 076°21'8 9.5
2017-Feb-27 03:32N 39°19' W 076°13'10 9.8
2017-Feb-27 02:33N 39°25' W 076°03'9 8.6
2017-Feb-27 01:33N 39°30' W 075°54'7 6.6
2017-Feb-27 00:33N 39°32' W 075°46'7 7.2
2017-Feb-26 23:33N 39°33' W 075°37'7 7.3
2017-Feb-26 22:33N 39°40' W 075°32'1111.2
2017-Feb-26 21:33N 39°49' W 075°24'5 5.3
2017-Feb-26 20:33N 39°51' W 075°18'5 5.0
2017-Feb-26 19:33N 39°54' W 075°12'1 0.8
2017-Feb-26 18:33N 39°53' W 075°12'2 1.7
2017-Feb-26 17:33N 39°53' W 075°10'1 1.3
2017-Feb-26 16:33N 39°54' W 075°09'1 1.1
2017-Feb-26 15:33N 39°55' W 075°08'1 1.4
2017-Feb-26 14:33N 39°56' W 075°08'0 0.0
2017-Feb-26 13:33N 39°56' W 075°08'1 0.6
2017-Feb-26 12:33N 39°56' W 075°08'2 1.8
2017-Feb-26 11:33N 39°54' W 075°08'0 0.0
2017-Feb-26 10:33N 39°54' W 075°08'0 0.0
2017-Feb-26 09:33N 39°54' W 075°08'0 0.0
2017-Feb-26 08:33N 39°54' W 075°08'3 2.6
2017-Feb-26 07:33N 39°56' W 075°08'4 3.6
2017-Feb-26 06:33N 39°59' W 075°05'1 0.5
2017-Feb-26 05:33N 39°59' W 075°05'0 0.0
2017-Feb-26 04:33N 39°59' W 075°05'0 0.0
2017-Feb-26 03:33N 39°59' W 075°05'0 0.0
2017-Feb-26 02:33N 39°59' W 075°05'0 0.0
2017-Feb-26 01:33N 39°59' W 075°05'0 0.0
2017-Feb-26 00:33N 39°59' W 075°05'1 0.7
2017-Feb-25 23:33N 39°59' W 075°05'0 0.4
2017-Feb-25 22:33N 39°59' W 075°04'6 6.4
2017-Feb-25 21:33N 39°53' W 075°08'2 2.5
2017-Feb-25 20:33N 39°54' W 075°12'0 0.0
2017-Feb-25 19:33N 39°54' W 075°12'1 0.6
2017-Feb-25 18:33N 39°54' W 075°12'3 3.1
2017-Feb-25 17:33N 39°53' W 075°08'0 0.5
2017-Feb-25 16:33N 39°54' W 075°08'1 1.3
2017-Feb-25 15:33N 39°55' W 075°08'4 4.3
2017-Feb-25 14:33N 39°59' W 075°05'1 0.5
2017-Feb-25 13:33N 39°59' W 075°04'7 7.2
2017-Feb-25 12:33N 39°53' W 075°10'0 0.4
2017-Feb-25 11:33N 39°53' W 075°09'2 2.3
2017-Feb-25 10:33N 39°55' W 075°08'1 1.1
2017-Feb-25 09:33N 39°54' W 075°08'3 3.3
2017-Feb-25 08:33N 39°54' W 075°12'1 1.1
2017-Feb-25 07:33N 39°55' W 075°13'0 0.0
2017-Feb-25 06:33N 39°55' W 075°13'0 0.0
2017-Feb-25 05:33N 39°55' W 075°13'0 0.0
2017-Feb-25 04:33N 39°55' W 075°13'0 0.0
2017-Feb-25 03:33N 39°55' W 075°13'0 0.0
2017-Feb-25 02:33N 39°55' W 075°13'1 1.3
2017-Feb-25 01:33N 39°54' W 075°12'3 2.8
2017-Feb-25 00:33N 39°54' W 075°08'0 0.0
2017-Feb-24 23:33N 39°54' W 075°08'0 0.0
2017-Feb-24 22:33N 39°54' W 075°08'0 0.0
2017-Feb-24 21:33N 39°54' W 075°08'0 0.0
2017-Feb-24 20:33N 39°54' W 075°08'0 0.0
2017-Feb-24 19:33N 39°54' W 075°08'0 0.2
2017-Feb-24 18:33N 39°54' W 075°09'0 0.0
2017-Feb-24 17:33N 39°54' W 075°09'0 0.0
2017-Feb-24 16:33N 39°54' W 075°09'0 0.0
2017-Feb-24 15:33N 39°54' W 075°09'0 0.0
2017-Feb-24 14:33N 39°54' W 075°09'0 0.0
2017-Feb-24 13:33N 39°54' W 075°09'0 0.0
2017-Feb-24 12:33N 39°54' W 075°09'0 0.0
2017-Feb-24 11:33N 39°54' W 075°09'0 0.0
2017-Feb-24 10:33N 39°54' W 075°09'0 0.5
2017-Feb-24 09:33N 39°53' W 075°08'3 3.0
2017-Feb-24 08:33N 39°54' W 075°12'5 4.5
2017-Feb-24 07:33N 39°57' W 075°08'4 3.6
2017-Feb-24 06:33N 39°59' W 075°04'0 0.0
2017-Feb-24 05:33N 39°59' W 075°04'1 1.0
2017-Feb-24 04:33N 39°59' W 075°05'0 0.1
2017-Feb-24 03:33N 39°59' W 075°05'0 0.0
2017-Feb-24 02:33N 39°59' W 075°05'0 0.0
2017-Feb-24 01:33N 39°59' W 075°05'0 0.0
2017-Feb-24 00:33N 39°59' W 075°05'0 0.0
2017-Feb-23 23:34N 39°59' W 075°05'0 0.0
2017-Feb-23 22:34N 39°59' W 075°05'0 0.0
2017-Feb-23 21:34N 39°59' W 075°05'0 0.0
2017-Feb-23 20:34N 39°59' W 075°05'0 0.0
2017-Feb-23 19:34N 39°59' W 075°05'0 0.0
2017-Feb-23 18:34N 39°59' W 075°05'1 1.0
2017-Feb-23 17:34N 39°59' W 075°04'6 5.9
2017-Feb-23 16:33N 39°54' W 075°08'3 3.3
2017-Feb-23 15:34N 39°54' W 075°12'1 0.7
2017-Feb-23 14:33N 39°54' W 075°12'0 0.0
2017-Feb-23 13:33N 39°54' W 075°12'0 0.0
2017-Feb-23 12:34N 39°54' W 075°12'0 0.0
2017-Feb-23 11:34N 39°54' W 075°12'0 0.0
2017-Feb-23 10:34N 39°54' W 075°12'0 0.0
2017-Feb-23 09:34N 39°54' W 075°12'0 0.0
2017-Feb-23 08:33N 39°54' W 075°12'0 0.0
2017-Feb-23 07:33N 39°54' W 075°12'0 0.0
2017-Feb-23 06:34N 39°54' W 075°12'1 0.7
2017-Feb-23 05:33N 39°54' W 075°12'0 0.0
2017-Feb-23 04:34N 39°54' W 075°12'1 0.7
2017-Feb-23 03:33N 39°54' W 075°12'0 0.0
2017-Feb-23 02:33N 39°54' W 075°12'0 0.0
2017-Feb-23 01:33N 39°54' W 075°12'0 0.0
2017-Feb-23 00:33N 39°54' W 075°12'0 0.0
2017-Feb-22 23:34N 39°54' W 075°12'0 0.0
2017-Feb-22 22:34N 39°54' W 075°12'0 0.0
2017-Feb-22 21:34N 39°54' W 075°12'0 0.0
2017-Feb-22 20:34N 39°54' W 075°12'0 0.0
2017-Feb-22 19:33N 39°54' W 075°12'0 0.0
2017-Feb-22 18:33N 39°54' W 075°12'2 2.3
2017-Feb-22 17:34N 39°52' W 075°14'2 2.0
2017-Feb-22 16:34N 39°53' W 075°12'0 0.3
2017-Feb-22 15:33N 39°54' W 075°12'0 0.2
2017-Feb-22 14:33N 39°54' W 075°12'1 0.9
2017-Feb-22 13:33N 39°54' W 075°13'4 3.6
2017-Feb-22 12:34N 39°54' W 075°08'5 5.4
2017-Feb-22 11:33N 39°59' W 075°05'1 0.8
2017-Feb-22 10:33N 39°59' W 075°04'6 5.9
2017-Feb-22 09:34N 39°54' W 075°08'4 4.0
2017-Feb-22 08:34N 39°52' W 075°13'7 7.3
2017-Feb-22 07:33N 39°50' W 075°22'7 7.3
2017-Feb-22 06:34N 39°45' W 075°29'7 7.0
2017-Feb-22 05:33N 39°39' W 075°33'4 4.0
2017-Feb-22 04:34N 39°35' W 075°35'0 0.2
2017-Feb-22 03:33N 39°35' W 075°36'0 0.0
2017-Feb-22 02:34N 39°35' W 075°36'0 0.0
2017-Feb-22 01:33N 39°35' W 075°36'0 0.0
2017-Feb-22 00:34N 39°35' W 075°36'0 0.0
2017-Feb-21 23:33N 39°35' W 075°36'0 0.0
2017-Feb-21 22:34N 39°35' W 075°36'0 0.0
2017-Feb-21 21:33N 39°35' W 075°36'0 0.0
2017-Feb-21 20:33N 39°35' W 075°36'0 0.0
2017-Feb-21 19:33N 39°35' W 075°36'0 0.0
2017-Feb-21 18:34N 39°35' W 075°36'0 0.0
2017-Feb-21 17:34N 39°35' W 075°36'0 0.0
2017-Feb-21 16:33N 39°35' W 075°36'0 0.0
2017-Feb-21 15:34N 39°35' W 075°36'1 1.5
2017-Feb-21 14:34N 39°34' W 075°34'5 5.3
2017-Feb-21 13:34N 39°40' W 075°33'7 7.0
2017-Feb-21 12:34N 39°46' W 075°29'6 6.3
2017-Feb-21 11:34N 39°50' W 075°22'5 4.9
2017-Feb-21 10:33N 39°51' W 075°16'3 3.5
2017-Feb-21 09:33N 39°53' W 075°12'8 7.8
2017-Feb-21 08:33N 39°59' W 075°05'0 0.1
2017-Feb-21 07:29N 39°59' W 075°05'0 0.1
2017-Feb-21 06:33N 39°59' W 075°05'0 0.0
2017-Feb-21 05:32N 39°59' W 075°05'0 0.0
2017-Feb-21 04:33N 39°59' W 075°05'0 0.0
2017-Feb-21 03:34N 39°59' W 075°05'1 0.8
2017-Feb-21 02:31N 39°59' W 075°04'6 6.0
2017-Feb-21 01:33N 39°54' W 075°08'0 0.0
2017-Feb-21 00:33N 39°54' W 075°08'0 0.0
2017-Feb-20 23:33N 39°54' W 075°08'0 0.0
2017-Feb-20 22:33N 39°54' W 075°08'0 0.0
2017-Feb-20 21:34N 39°54' W 075°08'0 0.0
2017-Feb-20 20:33N 39°54' W 075°08'3 2.9
2017-Feb-20 19:33N 39°54' W 075°12'5 5.5
2017-Feb-20 18:33N 39°51' W 075°18'3 2.7
2017-Feb-20 17:33N 39°50' W 075°22'0 0.0
2017-Feb-20 16:33N 39°50' W 075°22'1 0.7
2017-Feb-20 15:34N 39°50' W 075°21'0 0.0
2017-Feb-20 14:33N 39°50' W 075°21'6 5.5
2017-Feb-20 13:33N 39°52' W 075°14'2 2.4
2017-Feb-20 12:33N 39°54' W 075°12'0 0.0
2017-Feb-20 11:33N 39°54' W 075°12'0 0.0
2017-Feb-20 10:34N 39°54' W 075°12'0 0.0
2017-Feb-20 09:33N 39°54' W 075°12'0 0.0
2017-Feb-20 08:33N 39°54' W 075°12'3 3.1
2017-Feb-20 07:33N 39°54' W 075°08'3 2.6
2017-Feb-20 06:33N 39°53' W 075°12'1 0.5
2017-Feb-20 05:26N 39°54' W 075°12'4 4.9
2017-Feb-20 04:34N 39°51' W 075°16'1 0.6
2017-Feb-20 03:34N 39°51' W 075°17'2 2.1
2017-Feb-20 02:33N 39°51' W 075°14'3 2.9
2017-Feb-20 01:34N 39°53' W 075°12'0 0.0
2017-Feb-20 00:33N 39°53' W 075°12'0 0.0
2017-Feb-19 23:33N 39°53' W 075°12'0 0.0
2017-Feb-19 22:33N 39°53' W 075°12'0 0.0
2017-Feb-19 21:34N 39°53' W 075°12'5 5.1
2017-Feb-19 20:33N 39°51' W 075°17'8 7.6
2017-Feb-19 19:34N 39°48' W 075°26'6 5.8
2017-Feb-19 18:33N 39°43' W 075°31'0 0.2
2017-Feb-19 17:33N 39°43' W 075°31'0 0.0
2017-Feb-19 16:33N 39°43' W 075°31'0 0.0
2017-Feb-19 15:34N 39°43' W 075°31'0 0.0
2017-Feb-19 14:34N 39°43' W 075°31'0 0.0
2017-Feb-19 13:33N 39°43' W 075°31'0 0.0
2017-Feb-19 12:33N 39°43' W 075°31'0 0.0
2017-Feb-19 11:33N 39°43' W 075°31'0 0.3
2017-Feb-19 10:34N 39°43' W 075°31'0 0.4
2017-Feb-19 09:34N 39°43' W 075°30'3 3.2
2017-Feb-19 08:33N 39°46' W 075°29'6 6.1
2017-Feb-19 07:33N 39°50' W 075°23'7 7.3
2017-Feb-19 06:33N 39°52' W 075°14'2 2.2
2017-Feb-19 05:33N 39°53' W 075°12'0 0.0
2017-Feb-19 04:34N 39°53' W 075°12'0 0.0
2017-Feb-19 03:34N 39°53' W 075°12'0 0.0
2017-Feb-19 02:34N 39°53' W 075°12'0 0.0
2017-Feb-19 01:34N 39°53' W 075°12'0 0.0
2017-Feb-19 00:33N 39°53' W 075°12'0 0.0
2017-Feb-18 23:33N 39°53' W 075°12'1 0.6
2017-Feb-18 22:33N 39°54' W 075°12'3 2.7
2017-Feb-18 21:33N 39°51' W 075°14'1 0.7
2017-Feb-18 20:33N 39°51' W 075°15'0 0.2
2017-Feb-18 19:33N 39°51' W 075°15'4 3.8
2017-Feb-18 18:34N 39°54' W 075°12'0 0.0
2017-Feb-18 17:34N 39°54' W 075°12'0 0.0
2017-Feb-18 16:34N 39°54' W 075°12'2 2.4
2017-Feb-18 15:34N 39°54' W 075°08'0 0.0
2017-Feb-18 14:34N 39°54' W 075°08'  
Track history (hours):
 
Tides and Currents Weather Stations Pressure Air Temp Water Temp Dewpoint Dewpoint Depression Visibility Wind Speed Wind Dir Waves Ship Positions

Roanoke

Owner: Vane Line Bunkering, Baltimore, MD. More information available from US FCC via Universal Licensing System and Coast Guard Vessel Documentation Center.

Last reported at 2017-Feb-28 14:33 UTC. Time now 2017-Feb-28 14:42 UTC.
Position N 39°12' W 075°22'.

Length 32 m; draft 13 m.

Type: Towing. MMSI: 367314510.

Date/timePositionNaut miles runAvg speedWind from/ knotsBaromVisibWave heightAir tempDewpointWater temp
2017-Feb-28 14:33N 39°12' W 075°22'3 2.8
2017-Feb-28 13:33N 39°15' W 075°21'4 3.5
2017-Feb-28 12:33N 39°17' W 075°23'4 3.6
2017-Feb-28 11:33N 39°20' W 075°26'7 7.4
2017-Feb-28 10:33N 39°26' W 075°32'8 7.7
2017-Feb-28 09:33N 39°34' W 075°34'7 7.1
2017-Feb-28 08:33N 39°32' W 075°44'7 6.6
2017-Feb-28 07:33N 39°32' W 075°52'7 6.9
2017-Feb-28 06:33N 39°27' W 075°59'7 7.0
2017-Feb-28 05:33N 39°23' W 076°06'7 7.0
2017-Feb-28 04:33N 39°18' W 076°13'7 7.2
2017-Feb-28 03:31N 39°14' W 076°20'7 7.3
2017-Feb-28 02:33N 39°12' W 076°29'5 5.2
2017-Feb-28 01:33N 39°15' W 076°34'0 0.0
2017-Feb-28 00:32N 39°15' W 076°34'0 0.0
2017-Feb-27 23:18N 39°15' W 076°34'0 0.0
2017-Feb-27 22:33N 39°15' W 076°34'0 0.0
2017-Feb-27 21:33N 39°15' W 076°34'0 0.0
2017-Feb-27 20:33N 39°15' W 076°34'0 0.0
2017-Feb-27 19:33N 39°15' W 076°34'0 0.0
2017-Feb-27 18:33N 39°15' W 076°34'0 0.0
2017-Feb-27 17:33N 39°15' W 076°34'0 0.0
2017-Feb-27 16:33N 39°15' W 076°34'0 0.0
2017-Feb-27 15:33N 39°15' W 076°34'1 0.9
2017-Feb-27 14:33N 39°15' W 076°33'0 0.0
2017-Feb-27 13:33N 39°15' W 076°33'0 0.0
2017-Feb-27 12:31N 39°15' W 076°33'0 0.0
2017-Feb-27 11:30N 39°15' W 076°33'0 0.0
2017-Feb-27 10:33N 39°15' W 076°33'0 0.0
2017-Feb-27 09:33N 39°15' W 076°33'0 0.0
2017-Feb-27 08:33N 39°15' W 076°33'1 1.1
2017-Feb-27 07:32N 39°15' W 076°34'0 0.0
2017-Feb-27 06:33N 39°15' W 076°34'2 1.7
2017-Feb-27 05:33N 39°14' W 076°32'9 8.0
2017-Feb-27 04:24N 39°13' W 076°21'8 9.5
2017-Feb-27 03:32N 39°19' W 076°13'10 9.8
2017-Feb-27 02:33N 39°25' W 076°03'9 8.6
2017-Feb-27 01:33N 39°30' W 075°54'7 6.6
2017-Feb-27 00:33N 39°32' W 075°46'7 7.2
2017-Feb-26 23:33N 39°33' W 075°37'7 7.3
2017-Feb-26 22:33N 39°40' W 075°32'1111.2
2017-Feb-26 21:33N 39°49' W 075°24'5 5.3
2017-Feb-26 20:33N 39°51' W 075°18'5 5.0
2017-Feb-26 19:33N 39°54' W 075°12'1 0.8
2017-Feb-26 18:33N 39°53' W 075°12'2 1.7
2017-Feb-26 17:33N 39°53' W 075°10'1 1.3
2017-Feb-26 16:33N 39°54' W 075°09'1 1.1
2017-Feb-26 15:33N 39°55' W 075°08'1 1.4
2017-Feb-26 14:33N 39°56' W 075°08'0 0.0
2017-Feb-26 13:33N 39°56' W 075°08'1 0.6
2017-Feb-26 12:33N 39°56' W 075°08'2 1.8
2017-Feb-26 11:33N 39°54' W 075°08'0 0.0
2017-Feb-26 10:33N 39°54' W 075°08'0 0.0
2017-Feb-26 09:33N 39°54' W 075°08'0 0.0
2017-Feb-26 08:33N 39°54' W 075°08'3 2.6
2017-Feb-26 07:33N 39°56' W 075°08'4 3.6
2017-Feb-26 06:33N 39°59' W 075°05'1 0.5
2017-Feb-26 05:33N 39°59' W 075°05'0 0.0
2017-Feb-26 04:33N 39°59' W 075°05'0 0.0
2017-Feb-26 03:33N 39°59' W 075°05'0 0.0
2017-Feb-26 02:33N 39°59' W 075°05'0 0.0
2017-Feb-26 01:33N 39°59' W 075°05'0 0.0
2017-Feb-26 00:33N 39°59' W 075°05'1 0.7
2017-Feb-25 23:33N 39°59' W 075°05'0 0.4
2017-Feb-25 22:33N 39°59' W 075°04'6 6.4
2017-Feb-25 21:33N 39°53' W 075°08'2 2.5
2017-Feb-25 20:33N 39°54' W 075°12'0 0.0
2017-Feb-25 19:33N 39°54' W 075°12'1 0.6
2017-Feb-25 18:33N 39°54' W 075°12'3 3.1
2017-Feb-25 17:33N 39°53' W 075°08'0 0.5
2017-Feb-25 16:33N 39°54' W 075°08'1 1.3
2017-Feb-25 15:33N 39°55' W 075°08'4 4.3
2017-Feb-25 14:33N 39°59' W 075°05'1 0.5
2017-Feb-25 13:33N 39°59' W 075°04'7 7.2
2017-Feb-25 12:33N 39°53' W 075°10'0 0.4
2017-Feb-25 11:33N 39°53' W 075°09'2 2.3
2017-Feb-25 10:33N 39°55' W 075°08'1 1.1
2017-Feb-25 09:33N 39°54' W 075°08'3 3.3
2017-Feb-25 08:33N 39°54' W 075°12'1 1.1
2017-Feb-25 07:33N 39°55' W 075°13'0 0.0
2017-Feb-25 06:33N 39°55' W 075°13'0 0.0
2017-Feb-25 05:33N 39°55' W 075°13'0 0.0
2017-Feb-25 04:33N 39°55' W 075°13'0 0.0
2017-Feb-25 03:33N 39°55' W 075°13'0 0.0
2017-Feb-25 02:33N 39°55' W 075°13'1 1.3
2017-Feb-25 01:33N 39°54' W 075°12'3 2.8
2017-Feb-25 00:33N 39°54' W 075°08'0 0.0
2017-Feb-24 23:33N 39°54' W 075°08'0 0.0
2017-Feb-24 22:33N 39°54' W 075°08'0 0.0
2017-Feb-24 21:33N 39°54' W 075°08'0 0.0
2017-Feb-24 20:33N 39°54' W 075°08'0 0.0
2017-Feb-24 19:33N 39°54' W 075°08'0 0.2
2017-Feb-24 18:33N 39°54' W 075°09'0 0.0
2017-Feb-24 17:33N 39°54' W 075°09'0 0.0
2017-Feb-24 16:33N 39°54' W 075°09'0 0.0
2017-Feb-24 15:33N 39°54' W 075°09'0 0.0
2017-Feb-24 14:33N 39°54' W 075°09'0 0.0
2017-Feb-24 13:33N 39°54' W 075°09'0 0.0
2017-Feb-24 12:33N 39°54' W 075°09'0 0.0
2017-Feb-24 11:33N 39°54' W 075°09'0 0.0
2017-Feb-24 10:33N 39°54' W 075°09'0 0.5
2017-Feb-24 09:33N 39°53' W 075°08'3 3.0
2017-Feb-24 08:33N 39°54' W 075°12'5 4.5
2017-Feb-24 07:33N 39°57' W 075°08'4 3.6
2017-Feb-24 06:33N 39°59' W 075°04'0 0.0
2017-Feb-24 05:33N 39°59' W 075°04'1 1.0
2017-Feb-24 04:33N 39°59' W 075°05'0 0.1
2017-Feb-24 03:33N 39°59' W 075°05'0 0.0
2017-Feb-24 02:33N 39°59' W 075°05'0 0.0
2017-Feb-24 01:33N 39°59' W 075°05'0 0.0
2017-Feb-24 00:33N 39°59' W 075°05'0 0.0
2017-Feb-23 23:34N 39°59' W 075°05'0 0.0
2017-Feb-23 22:34N 39°59' W 075°05'0 0.0
2017-Feb-23 21:34N 39°59' W 075°05'0 0.0
2017-Feb-23 20:34N 39°59' W 075°05'0 0.0
2017-Feb-23 19:34N 39°59' W 075°05'0 0.0
2017-Feb-23 18:34N 39°59' W 075°05'1 1.0
2017-Feb-23 17:34N 39°59' W 075°04'6 5.9
2017-Feb-23 16:33N 39°54' W 075°08'3 3.3
2017-Feb-23 15:34N 39°54' W 075°12'1 0.7
2017-Feb-23 14:33N 39°54' W 075°12'0 0.0
2017-Feb-23 13:33N 39°54' W 075°12'0 0.0
2017-Feb-23 12:34N 39°54' W 075°12'0 0.0
2017-Feb-23 11:34N 39°54' W 075°12'0 0.0
2017-Feb-23 10:34N 39°54' W 075°12'0 0.0
2017-Feb-23 09:34N 39°54' W 075°12'0 0.0
2017-Feb-23 08:33N 39°54' W 075°12'0 0.0
2017-Feb-23 07:33N 39°54' W 075°12'0 0.0
2017-Feb-23 06:34N 39°54' W 075°12'1 0.7
2017-Feb-23 05:33N 39°54' W 075°12'0 0.0
2017-Feb-23 04:34N 39°54' W 075°12'1 0.7
2017-Feb-23 03:33N 39°54' W 075°12'0 0.0
2017-Feb-23 02:33N 39°54' W 075°12'0 0.0
2017-Feb-23 01:33N 39°54' W 075°12'0 0.0
2017-Feb-23 00:33N 39°54' W 075°12'0 0.0
2017-Feb-22 23:34N 39°54' W 075°12'0 0.0
2017-Feb-22 22:34N 39°54' W 075°12'0 0.0
2017-Feb-22 21:34N 39°54' W 075°12'0 0.0
2017-Feb-22 20:34N 39°54' W 075°12'0 0.0
2017-Feb-22 19:33N 39°54' W 075°12'0 0.0
2017-Feb-22 18:33N 39°54' W 075°12'2 2.3
2017-Feb-22 17:34N 39°52' W 075°14'2 2.0
2017-Feb-22 16:34N 39°53' W 075°12'0 0.3
2017-Feb-22 15:33N 39°54' W 075°12'0 0.2
2017-Feb-22 14:33N 39°54' W 075°12'1 0.9
2017-Feb-22 13:33N 39°54' W 075°13'4 3.6
2017-Feb-22 12:34N 39°54' W 075°08'5 5.4
2017-Feb-22 11:33N 39°59' W 075°05'1 0.8
2017-Feb-22 10:33N 39°59' W 075°04'6 5.9
2017-Feb-22 09:34N 39°54' W 075°08'4 4.0
2017-Feb-22 08:34N 39°52' W 075°13'7 7.3
2017-Feb-22 07:33N 39°50' W 075°22'7 7.3
2017-Feb-22 06:34N 39°45' W 075°29'7 7.0
2017-Feb-22 05:33N 39°39' W 075°33'4 4.0
2017-Feb-22 04:34N 39°35' W 075°35'0 0.2
2017-Feb-22 03:33N 39°35' W 075°36'0 0.0
2017-Feb-22 02:34N 39°35' W 075°36'0 0.0
2017-Feb-22 01:33N 39°35' W 075°36'0 0.0
2017-Feb-22 00:34N 39°35' W 075°36'0 0.0
2017-Feb-21 23:33N 39°35' W 075°36'0 0.0
2017-Feb-21 22:34N 39°35' W 075°36'0 0.0
2017-Feb-21 21:33N 39°35' W 075°36'0 0.0
2017-Feb-21 20:33N 39°35' W 075°36'0 0.0
2017-Feb-21 19:33N 39°35' W 075°36'0 0.0
2017-Feb-21 18:34N 39°35' W 075°36'0 0.0
2017-Feb-21 17:34N 39°35' W 075°36'0 0.0
2017-Feb-21 16:33N 39°35' W 075°36'0 0.0
2017-Feb-21 15:34N 39°35' W 075°36'1 1.5
2017-Feb-21 14:34N 39°34' W 075°34'5 5.3
2017-Feb-21 13:34N 39°40' W 075°33'7 7.0
2017-Feb-21 12:34N 39°46' W 075°29'6 6.3
2017-Feb-21 11:34N 39°50' W 075°22'5 4.9
2017-Feb-21 10:33N 39°51' W 075°16'3 3.5
2017-Feb-21 09:33N 39°53' W 075°12'8 7.8
2017-Feb-21 08:33N 39°59' W 075°05'0 0.1
2017-Feb-21 07:29N 39°59' W 075°05'0 0.1
2017-Feb-21 06:33N 39°59' W 075°05'0 0.0
2017-Feb-21 05:32N 39°59' W 075°05'0 0.0
2017-Feb-21 04:33N 39°59' W 075°05'0 0.0
2017-Feb-21 03:34N 39°59' W 075°05'1 0.8
2017-Feb-21 02:31N 39°59' W 075°04'6 6.0
2017-Feb-21 01:33N 39°54' W 075°08'0 0.0
2017-Feb-21 00:33N 39°54' W 075°08'0 0.0
2017-Feb-20 23:33N 39°54' W 075°08'0 0.0
2017-Feb-20 22:33N 39°54' W 075°08'0 0.0
2017-Feb-20 21:34N 39°54' W 075°08'0 0.0
2017-Feb-20 20:33N 39°54' W 075°08'3 2.9
2017-Feb-20 19:33N 39°54' W 075°12'5 5.5
2017-Feb-20 18:33N 39°51' W 075°18'3 2.7
2017-Feb-20 17:33N 39°50' W 075°22'0 0.0
2017-Feb-20 16:33N 39°50' W 075°22'1 0.7
2017-Feb-20 15:34N 39°50' W 075°21'0 0.0
2017-Feb-20 14:33N 39°50' W 075°21'6 5.5
2017-Feb-20 13:33N 39°52' W 075°14'2 2.4
2017-Feb-20 12:33N 39°54' W 075°12'0 0.0
2017-Feb-20 11:33N 39°54' W 075°12'0 0.0
2017-Feb-20 10:34N 39°54' W 075°12'0 0.0
2017-Feb-20 09:33N 39°54' W 075°12'0 0.0
2017-Feb-20 08:33N 39°54' W 075°12'3 3.1
2017-Feb-20 07:33N 39°54' W 075°08'3 2.6
2017-Feb-20 06:33N 39°53' W 075°12'1 0.5
2017-Feb-20 05:26N 39°54' W 075°12'4 4.9
2017-Feb-20 04:34N 39°51' W 075°16'1 0.6
2017-Feb-20 03:34N 39°51' W 075°17'2 2.1
2017-Feb-20 02:33N 39°51' W 075°14'3 2.9
2017-Feb-20 01:34N 39°53' W 075°12'0 0.0
2017-Feb-20 00:33N 39°53' W 075°12'0 0.0
2017-Feb-19 23:33N 39°53' W 075°12'0 0.0
2017-Feb-19 22:33N 39°53' W 075°12'0 0.0
2017-Feb-19 21:34N 39°53' W 075°12'5 5.1
2017-Feb-19 20:33N 39°51' W 075°17'8 7.6
2017-Feb-19 19:34N 39°48' W 075°26'6 5.8
2017-Feb-19 18:33N 39°43' W 075°31'0 0.2
2017-Feb-19 17:33N 39°43' W 075°31'0 0.0
2017-Feb-19 16:33N 39°43' W 075°31'0 0.0
2017-Feb-19 15:34N 39°43' W 075°31'0 0.0
2017-Feb-19 14:34N 39°43' W 075°31'0 0.0
2017-Feb-19 13:33N 39°43' W 075°31'0 0.0
2017-Feb-19 12:33N 39°43' W 075°31'0 0.0
2017-Feb-19 11:33N 39°43' W 075°31'0 0.3
2017-Feb-19 10:34N 39°43' W 075°31'0 0.4
2017-Feb-19 09:34N 39°43' W 075°30'3 3.2
2017-Feb-19 08:33N 39°46' W 075°29'6 6.1
2017-Feb-19 07:33N 39°50' W 075°23'7 7.3
2017-Feb-19 06:33N 39°52' W 075°14'2 2.2
2017-Feb-19 05:33N 39°53' W 075°12'0 0.0
2017-Feb-19 04:34N 39°53' W 075°12'0 0.0
2017-Feb-19 03:34N 39°53' W 075°12'0 0.0
2017-Feb-19 02:34N 39°53' W 075°12'0 0.0
2017-Feb-19 01:34N 39°53' W 075°12'0 0.0
2017-Feb-19 00:33N 39°53' W 075°12'0 0.0
2017-Feb-18 23:33N 39°53' W 075°12'1 0.6
2017-Feb-18 22:33N 39°54' W 075°12'3 2.7
2017-Feb-18 21:33N 39°51' W 075°14'1 0.7
2017-Feb-18 20:33N 39°51' W 075°15'0 0.2
2017-Feb-18 19:33N 39°51' W 075°15'4 3.8
2017-Feb-18 18:34N 39°54' W 075°12'0 0.0
2017-Feb-18 17:34N 39°54' W 075°12'0 0.0
2017-Feb-18 16:34N 39°54' W 075°12'2 2.4
2017-Feb-18 15:34N 39°54' W 075°08'0 0.0
2017-Feb-18 14:34N 39°54' W 075°08'  

Dump ship's entire track history